sensor_id;sensor_type;location;lat;lon;timestamp;P1;durP1;ratioP1;P2;durP2;ratioP2
64075;SDS011;50327;51.328;12.324;2022-07-29T00:00:57;8.65;;;1.80;;
64075;SDS011;50327;51.328;12.324;2022-07-29T00:03:22;11.55;;;2.38;;
64075;SDS011;50327;51.328;12.324;2022-07-29T00:05:48;9.65;;;1.95;;
64075;SDS011;50327;51.328;12.324;2022-07-29T00:08:13;8.23;;;1.77;;
64075;SDS011;50327;51.328;12.324;2022-07-29T00:10:40;4.38;;;1.83;;
64075;SDS011;50327;51.328;12.324;2022-07-29T00:13:06;8.35;;;1.73;;
64075;SDS011;50327;51.328;12.324;2022-07-29T00:15:32;4.82;;;1.63;;
64075;SDS011;50327;51.328;12.324;2022-07-29T00:17:57;14.20;;;2.47;;
64075;SDS011;50327;51.328;12.324;2022-07-29T00:20:23;6.93;;;1.83;;
64075;SDS011;50327;51.328;12.324;2022-07-29T00:22:48;8.13;;;1.80;;
64075;SDS011;50327;51.328;12.324;2022-07-29T00:25:13;7.90;;;1.77;;
64075;SDS011;50327;51.328;12.324;2022-07-29T00:27:39;5.07;;;1.90;;
64075;SDS011;50327;51.328;12.324;2022-07-29T00:30:05;8.63;;;1.92;;
64075;SDS011;50327;51.328;12.324;2022-07-29T00:32:31;10.48;;;1.80;;
64075;SDS011;50327;51.328;12.324;2022-07-29T00:34:57;7.60;;;1.65;;
64075;SDS011;50327;51.328;12.324;2022-07-29T00:37:41;11.85;;;2.05;;
64075;SDS011;50327;51.328;12.324;2022-07-29T00:40:06;8.73;;;2.05;;
64075;SDS011;50327;51.328;12.324;2022-07-29T00:42:51;10.55;;;2.30;;
64075;SDS011;50327;51.328;12.324;2022-07-29T00:45:17;4.68;;;1.73;;
64075;SDS011;50327;51.328;12.324;2022-07-29T00:47:43;9.50;;;1.88;;
64075;SDS011;50327;51.328;12.324;2022-07-29T00:50:10;9.45;;;2.17;;
64075;SDS011;50327;51.328;12.324;2022-07-29T00:52:37;11.52;;;1.73;;
64075;SDS011;50327;51.328;12.324;2022-07-29T00:55:05;12.48;;;2.33;;
64075;SDS011;50327;51.328;12.324;2022-07-29T00:57:32;6.72;;;1.75;;
64075;SDS011;50327;51.328;12.324;2022-07-29T00:59:59;6.07;;;1.60;;
64075;SDS011;50327;51.328;12.324;2022-07-29T01:02:25;8.27;;;1.40;;
64075;SDS011;50327;51.328;12.324;2022-07-29T01:04:50;8.93;;;1.75;;
64075;SDS011;50327;51.328;12.324;2022-07-29T01:07:16;5.97;;;1.70;;
64075;SDS011;50327;51.328;12.324;2022-07-29T01:09:42;6.25;;;2.47;;
64075;SDS011;50327;51.328;12.324;2022-07-29T01:12:10;6.93;;;1.83;;
64075;SDS011;50327;51.328;12.324;2022-07-29T01:14:37;7.40;;;2.13;;
64075;SDS011;50327;51.328;12.324;2022-07-29T01:17:24;9.32;;;2.10;;
64075;SDS011;50327;51.328;12.324;2022-07-29T01:30:23;3.90;;;1.90;;
64075;SDS011;50327;51.328;12.324;2022-07-29T01:32:52;12.10;;;2.10;;
64075;SDS011;50327;51.328;12.324;2022-07-29T01:35:36;8.13;;;2.15;;
64075;SDS011;50327;51.328;12.324;2022-07-29T01:38:12;7.00;;;1.95;;
64075;SDS011;50327;51.328;12.324;2022-07-29T01:43:20;13.27;;;2.20;;
64075;SDS011;50327;51.328;12.324;2022-07-29T01:46:23;5.90;;;2.08;;
64075;SDS011;50327;51.328;12.324;2022-07-29T01:49:27;6.68;;;2.15;;
64075;SDS011;50327;51.328;12.324;2022-07-29T01:51:40;8.50;;;2.08;;
64075;SDS011;50327;51.328;12.324;2022-07-29T01:56:56;6.97;;;1.67;;
64075;SDS011;50327;51.328;12.324;2022-07-29T01:59:23;6.90;;;1.80;;
64075;SDS011;50327;51.328;12.324;2022-07-29T02:01:50;13.43;;;2.50;;
64075;SDS011;50327;51.328;12.324;2022-07-29T02:04:18;7.50;;;1.83;;
64075;SDS011;50327;51.328;12.324;2022-07-29T02:06:45;8.18;;;1.92;;
64075;SDS011;50327;51.328;12.324;2022-07-29T02:09:15;8.95;;;2.08;;
64075;SDS011;50327;51.328;12.324;2022-07-29T02:11:44;5.00;;;1.80;;
64075;SDS011;50327;51.328;12.324;2022-07-29T02:14:14;7.45;;;1.67;;
64075;SDS011;50327;51.328;12.324;2022-07-29T02:16:42;7.45;;;1.98;;
64075;SDS011;50327;51.328;12.324;2022-07-29T02:19:10;9.63;;;1.83;;
64075;SDS011;50327;51.328;12.324;2022-07-29T02:21:38;6.97;;;1.55;;
64075;SDS011;50327;51.328;12.324;2022-07-29T02:24:05;5.65;;;1.77;;
64075;SDS011;50327;51.328;12.324;2022-07-29T02:26:32;5.05;;;1.63;;
64075;SDS011;50327;51.328;12.324;2022-07-29T02:28:59;4.70;;;1.90;;
64075;SDS011;50327;51.328;12.324;2022-07-29T02:31:26;10.23;;;2.17;;
64075;SDS011;50327;51.328;12.324;2022-07-29T02:33:57;5.80;;;1.90;;
64075;SDS011;50327;51.328;12.324;2022-07-29T02:36:24;6.35;;;2.13;;
64075;SDS011;50327;51.328;12.324;2022-07-29T02:38:50;7.15;;;2.60;;
64075;SDS011;50327;51.328;12.324;2022-07-29T02:41:28;5.30;;;2.13;;
64075;SDS011;50327;51.328;12.324;2022-07-29T02:44:02;11.73;;;1.70;;
64075;SDS011;50327;51.328;12.324;2022-07-29T02:46:32;9.00;;;1.98;;
64075;SDS011;50327;51.328;12.324;2022-07-29T02:49:06;10.40;;;2.15;;
64075;SDS011;50327;51.328;12.324;2022-07-29T02:51:35;5.90;;;1.88;;
64075;SDS011;50327;51.328;12.324;2022-07-29T02:54:08;11.40;;;2.25;;
64075;SDS011;50327;51.328;12.324;2022-07-29T02:56:35;7.40;;;1.90;;
64075;SDS011;50327;51.328;12.324;2022-07-29T02:59:06;5.00;;;1.67;;
64075;SDS011;50327;51.328;12.324;2022-07-29T03:01:34;5.80;;;1.77;;
64075;SDS011;50327;51.328;12.324;2022-07-29T03:04:01;9.32;;;2.00;;
64075;SDS011;50327;51.328;12.324;2022-07-29T03:06:29;8.40;;;1.95;;
64075;SDS011;50327;51.328;12.324;2022-07-29T03:08:55;3.05;;;1.40;;
64075;SDS011;50327;51.328;12.324;2022-07-29T03:11:23;7.05;;;1.80;;
64075;SDS011;50327;51.328;12.324;2022-07-29T03:13:50;5.90;;;1.83;;
64075;SDS011;50327;51.328;12.324;2022-07-29T03:16:15;9.02;;;1.92;;
64075;SDS011;50327;51.328;12.324;2022-07-29T03:18:43;9.98;;;2.03;;
64075;SDS011;50327;51.328;12.324;2022-07-29T03:21:08;9.50;;;2.20;;
64075;SDS011;50327;51.328;12.324;2022-07-29T03:23:34;12.93;;;2.30;;
64075;SDS011;50327;51.328;12.324;2022-07-29T03:25:59;12.90;;;1.77;;
64075;SDS011;50327;51.328;12.324;2022-07-29T03:28:25;8.35;;;1.83;;
64075;SDS011;50327;51.328;12.324;2022-07-29T03:30:52;9.80;;;1.90;;
64075;SDS011;50327;51.328;12.324;2022-07-29T03:33:17;8.05;;;2.00;;
64075;SDS011;50327;51.328;12.324;2022-07-29T03:35:43;8.35;;;1.85;;
64075;SDS011;50327;51.328;12.324;2022-07-29T03:38:08;7.15;;;2.00;;
64075;SDS011;50327;51.328;12.324;2022-07-29T03:40:48;7.03;;;1.83;;
64075;SDS011;50327;51.328;12.324;2022-07-29T03:43:17;11.43;;;1.73;;
64075;SDS011;50327;51.328;12.324;2022-07-29T03:45:45;15.30;;;2.00;;
64075;SDS011;50327;51.328;12.324;2022-07-29T03:48:15;7.88;;;1.92;;
64075;SDS011;50327;51.328;12.324;2022-07-29T03:50:42;17.33;;;2.00;;
64075;SDS011;50327;51.328;12.324;2022-07-29T03:53:09;4.82;;;1.85;;
64075;SDS011;50327;51.328;12.324;2022-07-29T03:55:41;9.55;;;1.88;;
64075;SDS011;50327;51.328;12.324;2022-07-29T03:58:10;6.35;;;1.95;;
64075;SDS011;50327;51.328;12.324;2022-07-29T04:00:37;5.93;;;1.70;;
64075;SDS011;50327;51.328;12.324;2022-07-29T04:03:03;9.98;;;2.00;;
64075;SDS011;50327;51.328;12.324;2022-07-29T04:05:30;8.52;;;1.63;;
64075;SDS011;50327;51.328;12.324;2022-07-29T04:07:55;6.35;;;1.90;;
64075;SDS011;50327;51.328;12.324;2022-07-29T04:10:21;13.43;;;2.38;;
64075;SDS011;50327;51.328;12.324;2022-07-29T04:12:48;8.35;;;1.70;;
64075;SDS011;50327;51.328;12.324;2022-07-29T04:15:14;9.23;;;1.85;;
64075;SDS011;50327;51.328;12.324;2022-07-29T04:17:39;15.57;;;2.03;;
64075;SDS011;50327;51.328;12.324;2022-07-29T04:20:05;11.18;;;2.00;;
64075;SDS011;50327;51.328;12.324;2022-07-29T04:22:30;8.25;;;2.15;;
64075;SDS011;50327;51.328;12.324;2022-07-29T04:24:56;12.43;;;2.13;;
64075;SDS011;50327;51.328;12.324;2022-07-29T04:27:21;10.77;;;2.30;;
64075;SDS011;50327;51.328;12.324;2022-07-29T04:29:47;9.65;;;1.67;;
64075;SDS011;50327;51.328;12.324;2022-07-29T04:32:12;11.30;;;1.90;;
64075;SDS011;50327;51.328;12.324;2022-07-29T04:34:37;10.48;;;2.25;;
64075;SDS011;50327;51.328;12.324;2022-07-29T04:37:03;14.90;;;2.22;;
64075;SDS011;50327;51.328;12.324;2022-07-29T04:39:28;14.75;;;2.17;;
64075;SDS011;50327;51.328;12.324;2022-07-29T04:41:53;11.30;;;2.20;;
64075;SDS011;50327;51.328;12.324;2022-07-29T04:44:19;8.18;;;1.95;;
64075;SDS011;50327;51.328;12.324;2022-07-29T04:46:44;13.82;;;2.40;;
64075;SDS011;50327;51.328;12.324;2022-07-29T04:49:10;10.18;;;2.20;;
64075;SDS011;50327;51.328;12.324;2022-07-29T04:51:35;7.35;;;2.20;;
64075;SDS011;50327;51.328;12.324;2022-07-29T04:54:01;16.83;;;3.17;;
64075;SDS011;50327;51.328;12.324;2022-07-29T04:56:26;9.15;;;2.78;;
64075;SDS011;50327;51.328;12.324;2022-07-29T04:58:52;12.43;;;2.55;;
64075;SDS011;50327;51.328;12.324;2022-07-29T05:01:17;7.72;;;2.50;;
64075;SDS011;50327;51.328;12.324;2022-07-29T05:03:43;12.10;;;2.13;;
64075;SDS011;50327;51.328;12.324;2022-07-29T05:06:10;6.75;;;2.20;;
64075;SDS011;50327;51.328;12.324;2022-07-29T05:08:35;7.88;;;2.55;;
64075;SDS011;50327;51.328;12.324;2022-07-29T05:11:01;10.55;;;2.25;;
64075;SDS011;50327;51.328;12.324;2022-07-29T05:13:26;7.43;;;2.50;;
64075;SDS011;50327;51.328;12.324;2022-07-29T05:15:51;9.55;;;2.50;;
64075;SDS011;50327;51.328;12.324;2022-07-29T05:18:17;15.13;;;2.50;;
64075;SDS011;50327;51.328;12.324;2022-07-29T05:20:42;7.60;;;2.33;;
64075;SDS011;50327;51.328;12.324;2022-07-29T05:23:08;8.60;;;2.40;;
64075;SDS011;50327;51.328;12.324;2022-07-29T05:25:33;14.80;;;2.78;;
64075;SDS011;50327;51.328;12.324;2022-07-29T05:27:59;14.98;;;2.60;;
64075;SDS011;50327;51.328;12.324;2022-07-29T05:30:27;4.75;;;2.00;;
64075;SDS011;50327;51.328;12.324;2022-07-29T05:32:53;13.13;;;2.22;;
64075;SDS011;50327;51.328;12.324;2022-07-29T05:35:18;16.48;;;2.40;;
64075;SDS011;50327;51.328;12.324;2022-07-29T05:37:43;8.10;;;2.20;;
64075;SDS011;50327;51.328;12.324;2022-07-29T05:40:09;16.83;;;2.72;;
64075;SDS011;50327;51.328;12.324;2022-07-29T05:42:35;7.38;;;2.05;;
64075;SDS011;50327;51.328;12.324;2022-07-29T05:45:01;9.57;;;2.63;;
64075;SDS011;50327;51.328;12.324;2022-07-29T05:47:26;6.38;;;2.10;;
64075;SDS011;50327;51.328;12.324;2022-07-29T05:49:52;9.73;;;2.85;;
64075;SDS011;50327;51.328;12.324;2022-07-29T05:52:18;15.23;;;2.50;;
64075;SDS011;50327;51.328;12.324;2022-07-29T05:54:44;9.82;;;2.72;;
64075;SDS011;50327;51.328;12.324;2022-07-29T05:57:16;15.32;;;2.88;;
64075;SDS011;50327;51.328;12.324;2022-07-29T05:59:46;9.95;;;2.28;;
64075;SDS011;50327;51.328;12.324;2022-07-29T06:02:13;11.27;;;3.72;;
64075;SDS011;50327;51.328;12.324;2022-07-29T06:04:38;14.93;;;2.40;;
64075;SDS011;50327;51.328;12.324;2022-07-29T06:07:04;14.82;;;2.90;;
64075;SDS011;50327;51.328;12.324;2022-07-29T06:09:29;5.68;;;2.20;;
64075;SDS011;50327;51.328;12.324;2022-07-29T06:11:55;17.15;;;2.53;;
64075;SDS011;50327;51.328;12.324;2022-07-29T06:14:21;15.77;;;2.60;;
64075;SDS011;50327;51.328;12.324;2022-07-29T06:16:46;14.45;;;2.83;;
64075;SDS011;50327;51.328;12.324;2022-07-29T06:19:11;10.13;;;2.50;;
64075;SDS011;50327;51.328;12.324;2022-07-29T06:21:41;8.98;;;2.50;;
64075;SDS011;50327;51.328;12.324;2022-07-29T06:24:07;15.23;;;2.40;;
64075;SDS011;50327;51.328;12.324;2022-07-29T06:26:32;21.58;;;2.90;;
64075;SDS011;50327;51.328;12.324;2022-07-29T06:28:58;20.35;;;3.13;;
64075;SDS011;50327;51.328;12.324;2022-07-29T06:31:23;17.02;;;2.83;;
64075;SDS011;50327;51.328;12.324;2022-07-29T06:33:49;9.52;;;2.40;;
64075;SDS011;50327;51.328;12.324;2022-07-29T06:36:14;18.20;;;2.95;;
64075;SDS011;50327;51.328;12.324;2022-07-29T06:38:40;12.73;;;2.35;;
64075;SDS011;50327;51.328;12.324;2022-07-29T06:41:05;13.40;;;2.13;;
64075;SDS011;50327;51.328;12.324;2022-07-29T06:43:38;14.75;;;2.97;;
64075;SDS011;50327;51.328;12.324;2022-07-29T06:46:13;14.70;;;2.75;;
64075;SDS011;50327;51.328;12.324;2022-07-29T06:48:41;12.65;;;3.03;;
64075;SDS011;50327;51.328;12.324;2022-07-29T06:51:11;14.88;;;2.75;;
64075;SDS011;50327;51.328;12.324;2022-07-29T06:53:37;16.65;;;3.33;;
64075;SDS011;50327;51.328;12.324;2022-07-29T06:56:03;16.27;;;2.80;;
64075;SDS011;50327;51.328;12.324;2022-07-29T06:58:30;7.43;;;2.85;;
64075;SDS011;50327;51.328;12.324;2022-07-29T07:00:56;17.75;;;2.47;;
64075;SDS011;50327;51.328;12.324;2022-07-29T07:03:23;15.35;;;2.97;;
64075;SDS011;50327;51.328;12.324;2022-07-29T07:05:48;8.30;;;2.60;;
64075;SDS011;50327;51.328;12.324;2022-07-29T07:08:14;9.93;;;2.90;;
64075;SDS011;50327;51.328;12.324;2022-07-29T07:10:41;14.15;;;4.22;;
64075;SDS011;50327;51.328;12.324;2022-07-29T07:13:07;18.75;;;3.95;;
64075;SDS011;50327;51.328;12.324;2022-07-29T07:15:32;21.35;;;3.70;;
64075;SDS011;50327;51.328;12.324;2022-07-29T07:17:59;14.05;;;4.22;;
64075;SDS011;50327;51.328;12.324;2022-07-29T07:20:24;11.48;;;4.65;;
64075;SDS011;50327;51.328;12.324;2022-07-29T07:22:50;14.15;;;6.03;;
64075;SDS011;50327;51.328;12.324;2022-07-29T07:25:15;15.40;;;4.60;;
64075;SDS011;50327;51.328;12.324;2022-07-29T07:27:42;23.45;;;5.68;;
64075;SDS011;50327;51.328;12.324;2022-07-29T07:30:08;27.33;;;6.63;;
64075;SDS011;50327;51.328;12.324;2022-07-29T07:32:34;19.45;;;6.38;;
64075;SDS011;50327;51.328;12.324;2022-07-29T07:35:00;28.77;;;6.70;;
64075;SDS011;50327;51.328;12.324;2022-07-29T07:37:25;14.05;;;4.97;;
64075;SDS011;50327;51.328;12.324;2022-07-29T07:39:51;19.92;;;5.90;;
64075;SDS011;50327;51.328;12.324;2022-07-29T07:42:17;16.70;;;5.47;;
64075;SDS011;50327;51.328;12.324;2022-07-29T07:44:43;23.23;;;5.45;;
64075;SDS011;50327;51.328;12.324;2022-07-29T07:47:10;24.90;;;5.82;;
64075;SDS011;50327;51.328;12.324;2022-07-29T07:49:36;13.93;;;5.70;;
64075;SDS011;50327;51.328;12.324;2022-07-29T07:52:02;11.52;;;4.72;;
64075;SDS011;50327;51.328;12.324;2022-07-29T07:54:27;15.32;;;4.90;;
64075;SDS011;50327;51.328;12.324;2022-07-29T07:56:53;14.13;;;4.55;;
64075;SDS011;50327;51.328;12.324;2022-07-29T07:59:18;13.70;;;5.20;;
64075;SDS011;50327;51.328;12.324;2022-07-29T08:01:43;13.18;;;4.25;;
64075;SDS011;50327;51.328;12.324;2022-07-29T08:04:09;16.90;;;4.93;;
64075;SDS011;50327;51.328;12.324;2022-07-29T08:06:34;22.88;;;5.40;;
64075;SDS011;50327;51.328;12.324;2022-07-29T08:09:01;14.90;;;4.70;;
64075;SDS011;50327;51.328;12.324;2022-07-29T08:11:28;15.57;;;4.18;;
64075;SDS011;50327;51.328;12.324;2022-07-29T08:13:54;12.57;;;4.72;;
64075;SDS011;50327;51.328;12.324;2022-07-29T08:16:19;19.70;;;4.70;;
64075;SDS011;50327;51.328;12.324;2022-07-29T08:18:45;15.32;;;4.63;;
64075;SDS011;50327;51.328;12.324;2022-07-29T08:21:12;11.15;;;4.03;;
64075;SDS011;50327;51.328;12.324;2022-07-29T08:23:38;16.95;;;4.88;;
64075;SDS011;50327;51.328;12.324;2022-07-29T08:26:05;12.90;;;4.50;;
64075;SDS011;50327;51.328;12.324;2022-07-29T08:28:31;18.10;;;4.75;;
64075;SDS011;50327;51.328;12.324;2022-07-29T08:30:56;16.10;;;4.20;;
64075;SDS011;50327;51.328;12.324;2022-07-29T08:33:21;17.13;;;5.20;;
64075;SDS011;50327;51.328;12.324;2022-07-29T08:35:47;14.98;;;4.15;;
64075;SDS011;50327;51.328;12.324;2022-07-29T08:38:13;13.55;;;4.00;;
64075;SDS011;50327;51.328;12.324;2022-07-29T08:40:39;24.88;;;4.00;;
64075;SDS011;50327;51.328;12.324;2022-07-29T08:43:05;17.42;;;3.88;;
64075;SDS011;50327;51.328;12.324;2022-07-29T08:45:36;16.67;;;4.00;;
64075;SDS011;50327;51.328;12.324;2022-07-29T08:48:08;7.47;;;3.13;;
64075;SDS011;50327;51.328;12.324;2022-07-29T08:50:34;12.75;;;3.72;;
64075;SDS011;50327;51.328;12.324;2022-07-29T08:53:01;17.63;;;3.90;;
64075;SDS011;50327;51.328;12.324;2022-07-29T08:55:28;13.23;;;3.25;;
64075;SDS011;50327;51.328;12.324;2022-07-29T08:57:53;9.82;;;3.08;;
64075;SDS011;50327;51.328;12.324;2022-07-29T09:00:20;12.52;;;3.88;;
64075;SDS011;50327;51.328;12.324;2022-07-29T09:02:47;13.02;;;3.20;;
64075;SDS011;50327;51.328;12.324;2022-07-29T09:05:20;13.90;;;3.10;;
64075;SDS011;50327;51.328;12.324;2022-07-29T09:07:47;16.58;;;3.28;;
64075;SDS011;50327;51.328;12.324;2022-07-29T09:10:13;19.05;;;3.15;;
64075;SDS011;50327;51.328;12.324;2022-07-29T09:12:38;12.65;;;3.00;;
64075;SDS011;50327;51.328;12.324;2022-07-29T09:15:04;14.23;;;3.55;;
64075;SDS011;50327;51.328;12.324;2022-07-29T09:17:44;17.25;;;3.63;;
64075;SDS011;50327;51.328;12.324;2022-07-29T09:20:12;11.45;;;3.33;;
64075;SDS011;50327;51.328;12.324;2022-07-29T09:22:39;18.58;;;3.55;;
64075;SDS011;50327;51.328;12.324;2022-07-29T09:25:04;13.85;;;3.70;;
64075;SDS011;50327;51.328;12.324;2022-07-29T09:27:30;16.73;;;3.25;;
64075;SDS011;50327;51.328;12.324;2022-07-29T09:30:06;13.30;;;3.25;;
64075;SDS011;50327;51.328;12.324;2022-07-29T09:32:57;14.23;;;3.40;;
64075;SDS011;50327;51.328;12.324;2022-07-29T09:35:23;14.30;;;3.60;;
64075;SDS011;50327;51.328;12.324;2022-07-29T09:37:50;20.10;;;4.18;;
64075;SDS011;50327;51.328;12.324;2022-07-29T09:40:21;11.93;;;3.55;;
64075;SDS011;50327;51.328;12.324;2022-07-29T09:42:48;15.55;;;3.90;;
64075;SDS011;50327;51.328;12.324;2022-07-29T09:45:30;14.57;;;3.92;;
64075;SDS011;50327;51.328;12.324;2022-07-29T09:47:58;13.80;;;4.28;;
64075;SDS011;50327;51.328;12.324;2022-07-29T09:50:34;9.38;;;3.88;;
64075;SDS011;50327;51.328;12.324;2022-07-29T09:53:01;14.90;;;3.90;;
64075;SDS011;50327;51.328;12.324;2022-07-29T09:55:26;16.45;;;4.32;;
64075;SDS011;50327;51.328;12.324;2022-07-29T09:57:52;13.57;;;4.45;;
64075;SDS011;50327;51.328;12.324;2022-07-29T10:00:19;17.13;;;3.63;;
64075;SDS011;50327;51.328;12.324;2022-07-29T10:02:46;18.20;;;3.90;;
64075;SDS011;50327;51.328;12.324;2022-07-29T10:05:17;9.13;;;4.00;;
64075;SDS011;50327;51.328;12.324;2022-07-29T10:07:51;9.13;;;3.90;;
64075;SDS011;50327;51.328;12.324;2022-07-29T10:12:50;12.93;;;4.22;;
64075;SDS011;50327;51.328;12.324;2022-07-29T10:15:17;23.42;;;4.28;;
64075;SDS011;50327;51.328;12.324;2022-07-29T10:17:42;12.13;;;3.53;;
64075;SDS011;50327;51.328;12.324;2022-07-29T10:20:08;14.38;;;4.10;;
64075;SDS011;50327;51.328;12.324;2022-07-29T10:22:34;9.43;;;4.00;;
64075;SDS011;50327;51.328;12.324;2022-07-29T10:25:00;12.77;;;3.50;;
64075;SDS011;50327;51.328;12.324;2022-07-29T10:27:26;9.60;;;3.05;;
64075;SDS011;50327;51.328;12.324;2022-07-29T10:29:53;10.93;;;3.75;;
64075;SDS011;50327;51.328;12.324;2022-07-29T10:41:03;11.00;;;2.83;;
64075;SDS011;50327;51.328;12.324;2022-07-29T10:43:50;11.68;;;3.83;;
64075;SDS011;50327;51.328;12.324;2022-07-29T10:46:18;8.15;;;2.97;;
64075;SDS011;50327;51.328;12.324;2022-07-29T10:54:19;16.13;;;2.80;;
64075;SDS011;50327;51.328;12.324;2022-07-29T10:59:43;11.43;;;2.65;;
64075;SDS011;50327;51.328;12.324;2022-07-29T11:07:22;8.57;;;2.45;;
64075;SDS011;50327;51.328;12.324;2022-07-29T11:15:10;8.10;;;2.70;;
64075;SDS011;50327;51.328;12.324;2022-07-29T11:31:33;6.70;;;1.83;;
64075;SDS011;50327;51.328;12.324;2022-07-29T11:39:31;13.60;;;2.30;;
64075;SDS011;50327;51.328;12.324;2022-07-29T11:47:30;5.93;;;2.08;;
64075;SDS011;50327;51.328;12.324;2022-07-29T11:49:57;8.25;;;2.67;;
64075;SDS011;50327;51.328;12.324;2022-07-29T11:52:31;8.88;;;2.72;;
64075;SDS011;50327;51.328;12.324;2022-07-29T11:54:58;6.38;;;2.55;;
64075;SDS011;50327;51.328;12.324;2022-07-29T11:57:27;9.20;;;2.22;;
64075;SDS011;50327;51.328;12.324;2022-07-29T11:59:53;12.73;;;2.72;;
64075;SDS011;50327;51.328;12.324;2022-07-29T12:02:20;11.85;;;2.70;;
64075;SDS011;50327;51.328;12.324;2022-07-29T12:07:14;8.77;;;2.97;;
64075;SDS011;50327;51.328;12.324;2022-07-29T12:09:41;10.18;;;2.85;;
64075;SDS011;50327;51.328;12.324;2022-07-29T12:12:15;12.93;;;2.75;;
64075;SDS011;50327;51.328;12.324;2022-07-29T12:14:41;10.02;;;2.40;;
64075;SDS011;50327;51.328;12.324;2022-07-29T12:17:24;14.90;;;3.72;;
64075;SDS011;50327;51.328;12.324;2022-07-29T12:19:52;11.20;;;2.92;;
64075;SDS011;50327;51.328;12.324;2022-07-29T12:22:28;7.70;;;3.20;;
64075;SDS011;50327;51.328;12.324;2022-07-29T12:27:25;17.13;;;2.80;;
64075;SDS011;50327;51.328;12.324;2022-07-29T12:29:58;7.20;;;2.80;;
64075;SDS011;50327;51.328;12.324;2022-07-29T12:32:42;14.88;;;2.90;;
64075;SDS011;50327;51.328;12.324;2022-07-29T12:35:12;10.50;;;2.70;;
64075;SDS011;50327;51.328;12.324;2022-07-29T12:37:43;10.65;;;2.80;;
64075;SDS011;50327;51.328;12.324;2022-07-29T12:40:11;38.15;;;4.40;;
64075;SDS011;50327;51.328;12.324;2022-07-29T12:42:38;9.07;;;2.60;;
64075;SDS011;50327;51.328;12.324;2022-07-29T12:45:04;12.43;;;2.88;;
64075;SDS011;50327;51.328;12.324;2022-07-29T12:47:31;10.93;;;3.20;;
64075;SDS011;50327;51.328;12.324;2022-07-29T12:50:07;11.63;;;2.85;;
64075;SDS011;50327;51.328;12.324;2022-07-29T12:52:39;8.52;;;3.17;;
64075;SDS011;50327;51.328;12.324;2022-07-29T12:55:10;6.78;;;3.05;;
64075;SDS011;50327;51.328;12.324;2022-07-29T12:57:45;10.18;;;3.20;;
64075;SDS011;50327;51.328;12.324;2022-07-29T13:00:12;11.98;;;3.75;;
64075;SDS011;50327;51.328;12.324;2022-07-29T13:02:39;19.48;;;3.75;;
64075;SDS011;50327;51.328;12.324;2022-07-29T13:05:07;11.40;;;3.30;;
64075;SDS011;50327;51.328;12.324;2022-07-29T13:07:34;23.17;;;3.80;;
64075;SDS011;50327;51.328;12.324;2022-07-29T13:10:15;11.63;;;3.47;;
64075;SDS011;50327;51.328;12.324;2022-07-29T13:13:02;8.57;;;2.70;;
64075;SDS011;50327;51.328;12.324;2022-07-29T13:15:34;12.27;;;2.83;;
64075;SDS011;50327;51.328;12.324;2022-07-29T13:18:01;10.75;;;4.13;;
64075;SDS011;50327;51.328;12.324;2022-07-29T13:20:27;12.02;;;3.38;;
64075;SDS011;50327;51.328;12.324;2022-07-29T13:25:30;9.75;;;2.90;;
64075;SDS011;50327;51.328;12.324;2022-07-29T13:27:57;17.17;;;2.90;;
64075;SDS011;50327;51.328;12.324;2022-07-29T13:30:24;14.88;;;3.20;;
64075;SDS011;50327;51.328;12.324;2022-07-29T13:32:50;7.10;;;2.90;;
64075;SDS011;50327;51.328;12.324;2022-07-29T13:35:17;9.63;;;2.70;;
64075;SDS011;50327;51.328;12.324;2022-07-29T13:37:43;12.35;;;2.60;;
64075;SDS011;50327;51.328;12.324;2022-07-29T13:40:10;9.02;;;2.83;;
64075;SDS011;50327;51.328;12.324;2022-07-29T13:42:39;7.13;;;2.90;;
64075;SDS011;50327;51.328;12.324;2022-07-29T13:45:06;13.52;;;2.92;;
64075;SDS011;50327;51.328;12.324;2022-07-29T13:47:33;8.70;;;2.67;;
64075;SDS011;50327;51.328;12.324;2022-07-29T13:50:02;10.25;;;3.20;;
64075;SDS011;50327;51.328;12.324;2022-07-29T13:52:29;12.10;;;3.10;;
64075;SDS011;50327;51.328;12.324;2022-07-29T13:54:55;8.27;;;3.17;;
64075;SDS011;50327;51.328;12.324;2022-07-29T13:57:20;7.97;;;3.50;;
64075;SDS011;50327;51.328;12.324;2022-07-29T13:59:46;11.40;;;3.33;;
64075;SDS011;50327;51.328;12.324;2022-07-29T14:02:11;10.93;;;2.80;;
64075;SDS011;50327;51.328;12.324;2022-07-29T14:04:37;8.95;;;2.92;;
64075;SDS011;50327;51.328;12.324;2022-07-29T14:07:03;7.93;;;3.20;;
64075;SDS011;50327;51.328;12.324;2022-07-29T14:09:29;8.35;;;2.35;;
64075;SDS011;50327;51.328;12.324;2022-07-29T14:11:55;8.77;;;2.90;;
64075;SDS011;50327;51.328;12.324;2022-07-29T14:14:20;6.85;;;2.78;;
64075;SDS011;50327;51.328;12.324;2022-07-29T14:16:46;7.25;;;2.78;;
64075;SDS011;50327;51.328;12.324;2022-07-29T14:19:12;12.00;;;5.78;;
64075;SDS011;50327;51.328;12.324;2022-07-29T14:21:40;9.00;;;3.45;;
64075;SDS011;50327;51.328;12.324;2022-07-29T14:24:05;7.97;;;3.03;;
64075;SDS011;50327;51.328;12.324;2022-07-29T14:26:31;10.35;;;3.67;;
64075;SDS011;50327;51.328;12.324;2022-07-29T14:28:57;14.15;;;2.78;;
64075;SDS011;50327;51.328;12.324;2022-07-29T14:31:22;10.20;;;2.95;;
64075;SDS011;50327;51.328;12.324;2022-07-29T14:34:06;9.73;;;3.55;;
64075;SDS011;50327;51.328;12.324;2022-07-29T14:36:47;8.05;;;3.10;;
64075;SDS011;50327;51.328;12.324;2022-07-29T14:39:45;12.02;;;2.97;;
64075;SDS011;50327;51.328;12.324;2022-07-29T14:45:08;8.90;;;2.72;;
64075;SDS011;50327;51.328;12.324;2022-07-29T14:47:43;9.65;;;3.20;;
64075;SDS011;50327;51.328;12.324;2022-07-29T14:50:11;20.42;;;3.25;;
64075;SDS011;50327;51.328;12.324;2022-07-29T14:52:43;7.75;;;3.17;;
64075;SDS011;50327;51.328;12.324;2022-07-29T14:55:40;10.00;;;3.20;;
64075;SDS011;50327;51.328;12.324;2022-07-29T14:58:12;10.93;;;3.88;;
64075;SDS011;50327;51.328;12.324;2022-07-29T15:01:06;11.82;;;3.47;;
64075;SDS011;50327;51.328;12.324;2022-07-29T15:03:46;11.20;;;3.15;;
64075;SDS011;50327;51.328;12.324;2022-07-29T15:06:24;6.95;;;3.40;;
64075;SDS011;50327;51.328;12.324;2022-07-29T15:09:08;16.85;;;3.60;;
64075;SDS011;50327;51.328;12.324;2022-07-29T15:11:42;11.00;;;3.38;;
64075;SDS011;50327;51.328;12.324;2022-07-29T15:14:08;10.10;;;3.70;;
64075;SDS011;50327;51.328;12.324;2022-07-29T15:16:44;10.82;;;3.08;;
64075;SDS011;50327;51.328;12.324;2022-07-29T15:19:10;13.93;;;3.45;;
64075;SDS011;50327;51.328;12.324;2022-07-29T15:21:49;24.60;;;3.40;;
64075;SDS011;50327;51.328;12.324;2022-07-29T15:24:19;10.00;;;3.33;;
64075;SDS011;50327;51.328;12.324;2022-07-29T15:27:00;8.52;;;3.03;;
64075;SDS011;50327;51.328;12.324;2022-07-29T15:29:31;9.38;;;3.75;;
64075;SDS011;50327;51.328;12.324;2022-07-29T15:32:05;16.15;;;3.28;;
64075;SDS011;50327;51.328;12.324;2022-07-29T15:34:35;10.25;;;3.28;;
64075;SDS011;50327;51.328;12.324;2022-07-29T15:37:10;13.13;;;3.92;;
64075;SDS011;50327;51.328;12.324;2022-07-29T15:39:41;16.15;;;3.83;;
64075;SDS011;50327;51.328;12.324;2022-07-29T15:42:16;8.55;;;3.38;;
64075;SDS011;50327;51.328;12.324;2022-07-29T15:44:49;13.23;;;3.53;;
64075;SDS011;50327;51.328;12.324;2022-07-29T15:47:18;9.13;;;3.50;;
64075;SDS011;50327;51.328;12.324;2022-07-29T15:49:58;12.50;;;4.60;;
64075;SDS011;50327;51.328;12.324;2022-07-29T15:52:26;37.35;;;3.40;;
64075;SDS011;50327;51.328;12.324;2022-07-29T15:57:20;7.28;;;2.70;;